sim
Sign-in with your pilot id or email,
or register
Callsign
Passwort

Schedule Details

Flight Number: OEO5695
Departure: Paderborn Lippstadt Airport (EDLP) at 04:25
Arrival: Fuerteventura Airport (GCFV) at 09:20

Weather Information
Getting current METAR information for EDLP 211750Z 03002KT CAVOK 19/07 Q1027
Getting current METAR information for GCFV 211800Z 01019KT CAVOK 26/18 Q1013

Schedule Frequency

Route Map